Grange City, Kentucky
Current Conditions -  °F | °C
As of 4:30 AM on Wednesday 22 Oct 2014 (Local Time) from KSYM Reporting Station
Overcast Overcast  
Wind Chill: 40°   Ceiling: 4400
Heat Index: 43°   Visibility: 10mi
Dew Point: 39°   Wind: 5mph
Humidity: 87%   Direction: 320°NW
Pressure: 30.18"   Gusts: NA
Location:  38.2838°N, 83.678°W
Report Text: KSYM 220830Z AUTO 32004KT 10SM OVC044 06/04 A3018 RMK AO2
Loading
Personal Weather Stations






























Interactive Weather Map
Tropical Storm Tracking
New forecast layout! Learn more

10-Day Weather Forecast

Advertisements
Track Severe Weather on mobile